Oasis of the Seas — C6XS7 — position and weather

sailwx.info

Track history (hours):
 
Tides and Currents Weather Stations Pressure Air Temp Water Temp Dewpoint Dewpoint Depression Visibility Wind Speed Wind Dir Waves Ship Positions

Oasis of the Seas

Last reported at 2014-Nov-25 06:00 UTC. Time now 2014-Nov-26 02:44 UTC.
Position N 19°24' W 074°54'.

Length 360 m; draft 9.3 m.

Type: Passenger vessel. MMSI: 311020600.

Wind from 070 at 14 knots

Barometer 1015.2 mb
Air temperature 27.3 ° C
Visibility: greater than 27.0 NM
Water temperature 30.7 ° C

Date/timePositionNaut miles runAvg speedWind from/ knotsBaromVisibWave heightAir tempDewpointWater temp
2014-Nov-25 06:00N 19°24' W 074°54'91 3.8 070 / 141015.227.0 27.3 30.7
2014-Nov-24 06:00N 20°30' W 073°48'29116.2 110 / 291014.210.8 27.7 30.3
2014-Nov-23 12:00N 22°36' W 078°30'9215.4 110 / 261015.327.0 26.7 29.7
2014-Nov-23 06:00N 23°54' W 079°24'13217.7 100 / 251016.4 25.4 28.7
2014-Nov-22 22:34N 26°01' W 080°03'6 5.7
2014-Nov-22 21:33N 26°05' W 080°07'0 0.0
2014-Nov-22 20:31N 26°05' W 080°07'0 0.0
2014-Nov-22 19:31N 26°05' W 080°07'0 0.0
2014-Nov-22 18:26N 26°05' W 080°07'0 0.0
2014-Nov-22 17:27N 26°05' W 080°07'0 0.0
2014-Nov-22 16:30N 26°05' W 080°07'0 0.0
2014-Nov-22 15:33N 26°05' W 080°07'0 0.0
2014-Nov-22 14:30N 26°05' W 080°07'0 0.0
2014-Nov-22 13:33N 26°05' W 080°07'0 0.0
2014-Nov-22 12:30N 26°05' W 080°07'0 0.0
2014-Nov-22 11:18N 26°05' W 080°07'0 0.2
2014-Nov-22 10:33N 26°05' W 080°07'1212.4
2014-Nov-22 09:34N 26°06' W 079°53'1716.5
2014-Nov-22 08:34N 26°08' W 079°35'15418.0
2014-Nov-22 00:00N 25°36' W 076°48'64718.0 060 / 351022.010.8 24.0 28.0
2014-Nov-20 12:00N 20°18' W 066°36'22118.4 100 / 151017.0 27.4 30.2
2014-Nov-20 00:00N 18°12' W 063°24'5 7.7 090 / 181016.010.8 27.0 30.0
2014-Nov-19 23:22N 18°08' W 063°21'1518.1
2014-Nov-19 22:33N 18°01' W 063°07'8 0.7
2014-Nov-19 11:10N 18°00' W 063°16'9 9.4
2014-Nov-19 10:13N 18°00' W 063°25'15 8.7
2014-Nov-19 08:32N 18°01' W 063°41'10 9.0
2014-Nov-19 07:28N 18°01' W 063°51'34410.9
2014-Nov-18 00:00N 20°54' W 069°06'23119.2 110 / 26 10.8 28.0 30.0
2014-Nov-17 12:00N 23°06' W 072°30'23319.4 110 / 261018.8 25.6 29.7
2014-Nov-17 00:00N 25°18' W 076°00'206 8.6 090 / 241018.027.0 26.0 28.3
2014-Nov-16 00:00N 26°06' W 079°42'511.2 050 / 191020.327.0 24.3 28.2
2014-Nov-15 23:33N 26°07' W 079°47'1212.6
2014-Nov-15 22:33N 26°05' W 080°01'5 5.0
2014-Nov-15 21:29N 26°05' W 080°07'0 0.0
2014-Nov-15 20:32N 26°05' W 080°07'0 0.0
2014-Nov-15 19:32N 26°05' W 080°07'0 0.0
2014-Nov-15 18:32N 26°05' W 080°07'0 0.0
2014-Nov-15 17:33N 26°05' W 080°07'0 0.0
2014-Nov-15 16:24N 26°05' W 080°07'0 0.0
2014-Nov-15 15:31N 26°05' W 080°07'0 0.0
2014-Nov-15 14:19N 26°05' W 080°07'0 0.0
2014-Nov-15 13:22N 26°05' W 080°07'0 0.0
2014-Nov-15 12:25N 26°05' W 080°07'0 0.0
2014-Nov-15 11:25N 26°05' W 080°07'0 0.2
2014-Nov-15 10:33N 26°05' W 080°07'9 9.1
2014-Nov-15 09:33N 25°60' W 079°59'1615.9
2014-Nov-15 08:33N 25°44' W 079°56'  
Track history (hours):
 
Tides and Currents Weather Stations Pressure Air Temp Water Temp Dewpoint Dewpoint Depression Visibility Wind Speed Wind Dir Waves Ship Positions

Oasis of the Seas

Last reported at 2014-Nov-25 06:00 UTC. Time now 2014-Nov-26 02:44 UTC.
Position N 19°24' W 074°54'.

Length 360 m; draft 9.3 m.

Type: Passenger vessel. MMSI: 311020600.

Wind from 070 at 14 knots

Barometer 1015.2 mb
Air temperature 27.3 ° C
Visibility: greater than 27.0 NM
Water temperature 30.7 ° C

Date/timePositionNaut miles runAvg speedWind from/ knotsBaromVisibWave heightAir tempDewpointWater temp
2014-Nov-25 06:00N 19°24' W 074°54'91 3.8 070 / 141015.227.0 27.3 30.7
2014-Nov-24 06:00N 20°30' W 073°48'29116.2 110 / 291014.210.8 27.7 30.3
2014-Nov-23 12:00N 22°36' W 078°30'9215.4 110 / 261015.327.0 26.7 29.7
2014-Nov-23 06:00N 23°54' W 079°24'13217.7 100 / 251016.4 25.4 28.7
2014-Nov-22 22:34N 26°01' W 080°03'6 5.7
2014-Nov-22 21:33N 26°05' W 080°07'0 0.0
2014-Nov-22 20:31N 26°05' W 080°07'0 0.0
2014-Nov-22 19:31N 26°05' W 080°07'0 0.0
2014-Nov-22 18:26N 26°05' W 080°07'0 0.0
2014-Nov-22 17:27N 26°05' W 080°07'0 0.0
2014-Nov-22 16:30N 26°05' W 080°07'0 0.0
2014-Nov-22 15:33N 26°05' W 080°07'0 0.0
2014-Nov-22 14:30N 26°05' W 080°07'0 0.0
2014-Nov-22 13:33N 26°05' W 080°07'0 0.0
2014-Nov-22 12:30N 26°05' W 080°07'0 0.0
2014-Nov-22 11:18N 26°05' W 080°07'0 0.2
2014-Nov-22 10:33N 26°05' W 080°07'1212.4
2014-Nov-22 09:34N 26°06' W 079°53'1716.5
2014-Nov-22 08:34N 26°08' W 079°35'15418.0
2014-Nov-22 00:00N 25°36' W 076°48'64718.0 060 / 351022.010.8 24.0 28.0
2014-Nov-20 12:00N 20°18' W 066°36'22118.4 100 / 151017.0 27.4 30.2
2014-Nov-20 00:00N 18°12' W 063°24'5 7.7 090 / 181016.010.8 27.0 30.0
2014-Nov-19 23:22N 18°08' W 063°21'1518.1
2014-Nov-19 22:33N 18°01' W 063°07'8 0.7
2014-Nov-19 11:10N 18°00' W 063°16'9 9.4
2014-Nov-19 10:13N 18°00' W 063°25'15 8.7
2014-Nov-19 08:32N 18°01' W 063°41'10 9.0
2014-Nov-19 07:28N 18°01' W 063°51'34410.9
2014-Nov-18 00:00N 20°54' W 069°06'23119.2 110 / 26 10.8 28.0 30.0
2014-Nov-17 12:00N 23°06' W 072°30'23319.4 110 / 261018.8 25.6 29.7
2014-Nov-17 00:00N 25°18' W 076°00'206 8.6 090 / 241018.027.0 26.0 28.3
2014-Nov-16 00:00N 26°06' W 079°42'511.2 050 / 191020.327.0 24.3 28.2
2014-Nov-15 23:33N 26°07' W 079°47'1212.6
2014-Nov-15 22:33N 26°05' W 080°01'5 5.0
2014-Nov-15 21:29N 26°05' W 080°07'0 0.0
2014-Nov-15 20:32N 26°05' W 080°07'0 0.0
2014-Nov-15 19:32N 26°05' W 080°07'0 0.0
2014-Nov-15 18:32N 26°05' W 080°07'0 0.0
2014-Nov-15 17:33N 26°05' W 080°07'0 0.0
2014-Nov-15 16:24N 26°05' W 080°07'0 0.0
2014-Nov-15 15:31N 26°05' W 080°07'0 0.0
2014-Nov-15 14:19N 26°05' W 080°07'0 0.0
2014-Nov-15 13:22N 26°05' W 080°07'0 0.0
2014-Nov-15 12:25N 26°05' W 080°07'0 0.0
2014-Nov-15 11:25N 26°05' W 080°07'0 0.2
2014-Nov-15 10:33N 26°05' W 080°07'9 9.1
2014-Nov-15 09:33N 25°60' W 079°59'1615.9
2014-Nov-15 08:33N 25°44' W 079°56'  

Dump ship's entire track history